📊 Raw Sensor Data

Showing records 49876 to 49900 of 85,126 total

ID Distance (ft) Battery V Battery A Int Temp (°F) Int Humid (%) Ext Temp (°F) Solar V RSSI SNR Time Stamp
35263 15.0 3.99 -10 51 43 51 3.30 -76 9 03/17/2025 07:15 PM
35262 -- 4.00 -5 52 44 52 4.50 -77 8 03/17/2025 07:00 PM
35261 15.1 4.01 0 52 45 52 4.50 -76 8 03/17/2025 06:45 PM
35260 15.0 4.08 7 55 45 52 4.50 -76 8 03/17/2025 06:30 PM
35259 15.1 4.05 0 56 45 54 5.10 -79 8 03/17/2025 06:15 PM
35258 -- 4.07 0 57 48 54 4.50 -76 8 03/17/2025 06:00 PM
35257 15.1 4.08 0 61 47 56 5.10 -78 7 03/17/2025 05:45 PM
35256 15.2 4.09 0 65 45 59 5.10 -77 8 03/17/2025 05:30 PM
35255 15.1 4.05 0 67 43 58 5.10 -77 8 03/17/2025 05:15 PM
35254 15.2 4.05 0 67 43 62 5.10 -78 8 03/17/2025 05:00 PM
35253 15.2 4.05 0 68 42 63 5.10 -77 7 03/17/2025 04:45 PM
35252 15.2 4.05 0 68 42 61 5.10 -79 8 03/17/2025 04:30 PM
35251 15.0 4.05 0 65 44 63 5.10 -77 7 03/17/2025 04:15 PM
35250 15.2 4.04 0 67 44 58 5.10 -78 8 03/17/2025 04:00 PM
35249 15.3 4.05 0 71 40 63 5.10 -76 8 03/17/2025 03:45 PM
35248 15.2 4.15 0 70 40 62 5.10 -75 8 03/17/2025 03:30 PM
35247 15.1 4.04 0 66 42 62 5.10 -79 8 03/17/2025 03:15 PM
35246 15.2 4.09 0 69 39 63 5.10 -77 7 03/17/2025 02:46 PM
35245 15.2 4.04 0 68 39 62 5.10 -78 7 03/17/2025 02:30 PM
35244 15.2 4.04 0 67 39 62 5.10 -75 8 03/17/2025 02:15 PM
35243 15.2 4.04 0 64 40 60 5.10 -79 7 03/17/2025 02:00 PM
35242 -- 4.06 0 65 39 62 5.10 -76 9 03/17/2025 01:45 PM
35241 15.2 4.04 0 62 40 59 5.10 -78 8 03/17/2025 01:30 PM
35240 15.2 4.04 0 62 39 59 5.10 -77 7 03/17/2025 01:15 PM
35239 15.1 4.04 0 59 40 57 5.10 -77 8 03/17/2025 01:00 PM